createdAt,value
2017-11-04T00:01:52.696Z,44.90
2017-11-04T00:04:18.785Z,43.00
2017-11-04T00:06:44.748Z,40.60
2017-11-04T00:09:11.038Z,39.13
2017-11-04T00:11:36.977Z,41.03
2017-11-04T00:14:02.946Z,44.97
2017-11-04T00:16:28.986Z,42.40
2017-11-04T00:18:54.924Z,37.30
2017-11-04T00:21:20.892Z,42.77
2017-11-04T00:23:46.853Z,40.43
2017-11-04T00:26:12.838Z,40.73
2017-11-04T00:28:38.771Z,41.80
2017-11-04T00:31:04.691Z,41.57
2017-11-04T00:33:30.605Z,35.80
2017-11-04T00:35:56.608Z,42.33
2017-11-04T00:38:22.546Z,45.87
2017-11-04T00:40:48.549Z,40.37
2017-11-04T00:43:14.484Z,47.20
2017-11-04T00:45:40.423Z,37.47
2017-11-04T00:48:06.399Z,45.17
2017-11-04T00:50:32.529Z,41.67
2017-11-04T00:52:58.503Z,46.63
2017-11-04T00:55:24.529Z,46.23
2017-11-04T00:57:50.525Z,46.57
2017-11-04T01:00:16.517Z,49.43
2017-11-04T01:02:42.471Z,43.07
2017-11-04T01:05:08.458Z,44.40
2017-11-04T01:07:34.431Z,39.83
2017-11-04T01:10:00.432Z,45.33
2017-11-04T01:12:26.394Z,45.60
2017-11-04T01:14:52.324Z,46.77
2017-11-04T01:17:18.312Z,47.27
2017-11-04T01:19:44.349Z,52.50
2017-11-04T01:22:10.343Z,49.77
2017-11-04T01:24:36.373Z,46.87
2017-11-04T01:27:02.312Z,42.70
2017-11-04T01:29:28.246Z,48.67
2017-11-04T01:31:54.215Z,45.77
2017-11-04T01:34:20.390Z,44.80
2017-11-04T01:36:46.356Z,47.87
2017-11-04T01:39:12.305Z,47.30
2017-11-04T01:41:38.227Z,46.63
2017-11-04T01:44:04.245Z,49.33
2017-11-04T01:46:30.200Z,50.33
2017-11-04T01:48:56.306Z,51.53
2017-11-04T01:51:22.254Z,44.53
2017-11-04T01:53:48.136Z,41.70
2017-11-04T01:56:14.139Z,43.70
2017-11-04T01:58:40.865Z,48.00
2017-11-04T02:01:06.903Z,48.40
2017-11-04T02:03:32.959Z,48.73
2017-11-04T02:05:58.944Z,54.90
2017-11-04T02:08:24.898Z,46.60
2017-11-04T02:10:50.941Z,46.50
2017-11-04T02:13:17.000Z,43.90
2017-11-04T02:15:42.936Z,51.53
2017-11-04T02:18:08.871Z,55.63
2017-11-04T02:20:34.915Z,52.70
2017-11-04T02:23:00.850Z,54.57
2017-11-04T02:25:26.816Z,51.30
2017-11-04T02:27:52.780Z,53.27
2017-11-04T02:30:18.730Z,52.90
2017-11-04T02:32:44.677Z,46.67
2017-11-04T02:35:10.648Z,48.27
2017-11-04T02:37:37.271Z,56.43
2017-11-04T02:40:03.532Z,50.80
2017-11-04T02:42:30.211Z,45.33
2017-11-04T02:44:56.133Z,45.13
2017-11-04T02:47:22.141Z,43.60
2017-11-04T02:49:48.120Z,45.83
2017-11-04T02:52:14.103Z,46.00
2017-11-04T02:54:40.078Z,45.67
2017-11-04T02:57:06.098Z,42.70
2017-11-04T02:59:32.163Z,50.43
2017-11-04T03:01:58.134Z,51.23
2017-11-04T03:04:24.148Z,45.43
2017-11-04T03:06:50.112Z,44.93
2017-11-04T03:09:16.036Z,46.50
2017-11-04T03:11:42.016Z,45.20
2017-11-04T03:14:07.956Z,50.33
2017-11-04T03:16:33.959Z,46.73
2017-11-04T03:18:59.869Z,52.47
2017-11-04T03:21:25.908Z,52.63
2017-11-04T03:23:51.875Z,46.30
2017-11-04T03:26:18.639Z,53.10
2017-11-04T03:28:44.687Z,52.33
2017-11-04T03:31:10.691Z,47.17
2017-11-04T03:33:36.636Z,45.83
2017-11-04T03:36:02.588Z,56.07
2017-11-04T03:38:28.556Z,51.30
2017-11-04T03:40:54.553Z,49.77
2017-11-04T03:43:20.505Z,46.80
2017-11-04T03:45:46.519Z,40.00
2017-11-04T03:48:12.531Z,45.50
2017-11-04T03:50:38.527Z,51.03
2017-11-04T03:53:04.492Z,51.10
2017-11-04T03:55:30.516Z,40.40
2017-11-04T03:57:56.437Z,49.00
2017-11-04T04:00:22.371Z,52.10
2017-11-04T04:02:48.281Z,47.70
2017-11-04T04:05:14.401Z,42.60
2017-11-04T04:07:40.420Z,46.50
2017-11-04T04:10:06.400Z,50.87
2017-11-04T04:12:32.366Z,47.90
2017-11-04T04:14:58.341Z,51.57
2017-11-04T04:17:24.295Z,48.03
2017-11-04T04:19:50.354Z,46.07
2017-11-04T04:22:16.283Z,48.23
2017-11-04T04:24:42.203Z,47.87
2017-11-04T04:27:08.879Z,47.83
2017-11-04T04:29:34.816Z,47.63
2017-11-04T04:32:00.775Z,47.57
2017-11-04T04:34:27.467Z,53.03
2017-11-04T04:36:53.438Z,51.30
2017-11-04T04:39:19.370Z,48.10
2017-11-04T04:41:45.323Z,46.60
2017-11-04T04:44:11.273Z,49.40
2017-11-04T04:46:37.253Z,49.27
2017-11-04T04:49:03.192Z,47.73
2017-11-04T04:51:29.186Z,50.83
2017-11-04T04:53:55.155Z,46.80
2017-11-04T04:56:21.106Z,45.47
2017-11-04T04:58:47.809Z,47.47
2017-11-04T05:01:13.760Z,44.10
2017-11-04T05:03:40.488Z,46.20
2017-11-04T05:06:06.425Z,44.00
2017-11-04T05:08:33.137Z,46.10
2017-11-04T05:10:59.080Z,46.93
2017-11-04T05:13:25.041Z,41.60
2017-11-04T05:15:51.745Z,42.57
2017-11-04T05:18:18.536Z,37.80
2017-11-04T05:20:44.488Z,42.03
2017-11-04T05:23:11.526Z,40.70
2017-11-04T05:25:37.488Z,41.80
2017-11-04T05:28:03.450Z,44.70
2017-11-04T05:30:29.408Z,40.17
2017-11-04T05:32:55.383Z,43.57
2017-11-04T05:35:21.357Z,42.10
2017-11-04T05:37:47.275Z,49.90
2017-11-04T05:40:13.232Z,45.67
2017-11-04T05:42:39.248Z,42.60
2017-11-04T05:45:05.212Z,49.90
2017-11-04T05:47:32.058Z,48.37
2017-11-04T05:49:58.127Z,51.20
2017-11-04T05:52:24.898Z,43.97
2017-11-04T05:54:50.903Z,49.27
2017-11-04T05:57:17.613Z,48.47
2017-11-04T05:59:44.298Z,46.00
2017-11-04T06:02:10.241Z,47.23
2017-11-04T06:04:37.651Z,45.30
2017-11-04T06:07:03.604Z,46.50
2017-11-04T06:09:29.584Z,48.77
2017-11-04T06:11:55.564Z,47.17
2017-11-04T06:14:21.698Z,44.07
2017-11-04T06:16:47.730Z,39.63
2017-11-04T06:19:13.761Z,47.93
2017-11-04T06:21:40.451Z,39.80
2017-11-04T06:24:06.383Z,40.47
2017-11-04T06:26:32.305Z,39.60
2017-11-04T06:28:58.432Z,36.23
2017-11-04T06:31:24.415Z,39.07
2017-11-04T06:33:50.383Z,38.33
2017-11-04T06:36:16.346Z,37.30
2017-11-04T06:38:42.271Z,38.30
2017-11-04T06:41:08.221Z,35.83
2017-11-04T06:43:34.492Z,36.90
2017-11-04T06:46:01.190Z,35.03
2017-11-04T06:48:27.212Z,39.80
2017-11-04T06:50:53.154Z,35.93
2017-11-04T06:53:20.639Z,36.57
2017-11-04T06:55:46.608Z,38.83
2017-11-04T06:58:13.291Z,37.73
2017-11-04T07:00:39.332Z,36.20
2017-11-04T07:03:05.310Z,39.30
2017-11-04T07:05:31.356Z,38.20
2017-11-04T07:07:57.401Z,36.73
2017-11-04T07:10:23.386Z,39.73
2017-11-04T07:12:49.315Z,41.03
2017-11-04T07:15:16.134Z,37.17
2017-11-04T07:17:42.210Z,36.30
2017-11-04T07:20:08.209Z,37.20
2017-11-04T07:22:34.186Z,37.33
2017-11-04T07:25:00.152Z,42.50
2017-11-04T07:27:26.847Z,42.80
2017-11-04T07:29:52.809Z,38.73
2017-11-04T07:32:18.765Z,39.10
2017-11-04T07:34:44.705Z,39.90
2017-11-04T07:37:10.684Z,40.40
2017-11-04T07:39:37.659Z,37.73
2017-11-04T07:42:03.669Z,40.27
2017-11-04T07:44:29.624Z,39.40
2017-11-04T07:46:55.606Z,39.23
2017-11-04T07:49:22.318Z,39.97
2017-11-04T07:51:48.281Z,39.63
2017-11-04T07:54:14.286Z,43.73
2017-11-04T07:56:40.354Z,38.77
2017-11-04T07:59:06.310Z,41.47
2017-11-04T08:01:32.277Z,40.87
2017-11-04T08:03:58.265Z,42.10
2017-11-04T08:06:24.222Z,42.23
2017-11-04T08:08:50.187Z,39.17
2017-11-04T08:11:17.636Z,37.20
2017-11-04T08:13:43.623Z,39.50
2017-11-04T08:16:09.572Z,43.07
2017-11-04T08:18:35.493Z,41.70
2017-11-04T08:21:01.434Z,39.03
2017-11-04T08:23:27.354Z,38.57
2017-11-04T08:25:53.321Z,38.17
2017-11-04T08:28:19.332Z,39.80
2017-11-04T08:30:45.327Z,37.80
2017-11-04T08:33:12.256Z,41.70
2017-11-04T08:35:38.227Z,41.43
2017-11-04T08:38:04.199Z,46.50
2017-11-04T08:40:30.178Z,45.17
2017-11-04T08:42:56.147Z,43.00
2017-11-04T08:45:22.134Z,45.97
2017-11-04T08:47:48.126Z,43.67
2017-11-04T08:50:14.184Z,43.50
2017-11-04T08:52:40.128Z,46.17
2017-11-04T08:55:06.124Z,41.43
2017-11-04T08:57:32.098Z,50.13
2017-11-04T08:59:58.052Z,49.33
2017-11-04T09:02:24.217Z,60.80
2017-11-04T09:04:50.145Z,43.40
2017-11-04T09:07:16.286Z,46.80
2017-11-04T09:09:42.981Z,46.77
2017-11-04T09:12:08.921Z,46.53
2017-11-04T09:14:34.925Z,48.80
2017-11-04T09:17:02.367Z,47.23
2017-11-04T09:19:28.421Z,44.20
2017-11-04T09:21:54.436Z,49.23
2017-11-04T09:24:20.472Z,46.10
2017-11-04T09:26:46.460Z,49.00
2017-11-04T09:29:13.108Z,54.07
2017-11-04T09:31:39.044Z,47.90
2017-11-04T09:34:05.182Z,52.17
2017-11-04T09:36:31.909Z,44.20
2017-11-04T09:38:57.936Z,46.40
2017-11-04T09:41:24.671Z,46.00
2017-11-04T09:43:50.614Z,41.87
2017-11-04T09:46:17.348Z,49.77
2017-11-04T09:48:44.294Z,46.20
2017-11-04T09:51:10.392Z,49.80
2017-11-04T09:53:37.350Z,52.13
2017-11-04T09:56:03.509Z,48.30
2017-11-04T09:58:29.534Z,50.23
2017-11-04T10:00:55.532Z,50.80
2017-11-04T10:03:21.649Z,49.07
2017-11-04T10:05:47.729Z,49.50
2017-11-04T10:08:15.553Z,49.83
2017-11-04T10:10:41.702Z,49.60
2017-11-04T10:13:12.194Z,42.60
2017-11-04T10:15:39.109Z,52.33
2017-11-04T10:18:05.247Z,49.27
2017-11-04T10:20:34.349Z,53.20
2017-11-04T10:23:01.417Z,54.97
2017-11-04T10:25:28.160Z,51.10
2017-11-04T10:27:54.115Z,45.93
2017-11-04T10:30:20.254Z,46.33
2017-11-04T10:32:46.281Z,51.00
2017-11-04T10:35:12.290Z,52.40
2017-11-04T10:37:38.341Z,46.10
2017-11-04T10:40:04.316Z,50.50
2017-11-04T10:42:41.731Z,45.93
2017-11-04T10:45:07.769Z,55.07
2017-11-04T10:47:33.862Z,46.97
2017-11-04T10:49:59.796Z,45.93
2017-11-04T10:52:25.959Z,44.93
2017-11-04T10:54:51.957Z,42.07
2017-11-04T10:57:17.967Z,39.23
2017-11-04T10:59:44.006Z,43.23
2017-11-04T11:02:10.041Z,42.93
2017-11-04T11:04:35.983Z,43.27
2017-11-04T11:07:02.870Z,42.37
2017-11-04T11:09:28.945Z,44.90
2017-11-04T11:11:55.645Z,43.00
2017-11-04T11:14:23.574Z,44.47
2017-11-04T11:21:51.373Z,38.40
2017-11-04T11:24:20.529Z,43.63
2017-11-04T11:26:46.557Z,37.67
2017-11-04T11:29:12.785Z,37.27
2017-11-04T11:34:11.942Z,48.53
2017-11-04T11:36:41.482Z,40.17
2017-11-04T11:41:42.074Z,40.43
2017-11-04T11:44:12.747Z,46.03
2017-11-04T11:49:12.208Z,38.70
2017-11-04T11:51:38.213Z,44.83
2017-11-04T11:54:06.524Z,43.73
2017-11-04T11:56:32.485Z,41.27
2017-11-04T11:58:58.574Z,41.40
2017-11-04T12:01:25.759Z,43.43
2017-11-04T12:03:51.706Z,47.60
2017-11-04T12:06:17.781Z,50.40
2017-11-04T12:08:43.790Z,49.50
2017-11-04T12:11:09.696Z,47.70
2017-11-04T12:13:36.508Z,52.93
2017-11-04T12:16:02.491Z,46.33
2017-11-04T12:18:28.467Z,44.73
2017-11-04T12:20:54.461Z,52.90
2017-11-04T12:23:20.549Z,53.17
2017-11-04T12:25:46.534Z,47.00
2017-11-04T12:28:12.563Z,51.17
2017-11-04T12:30:39.246Z,51.03
2017-11-04T12:33:05.222Z,53.83
2017-11-04T12:35:31.171Z,51.63
2017-11-04T12:37:57.174Z,56.80
2017-11-04T12:40:25.520Z,62.43
2017-11-04T12:42:53.457Z,50.63
2017-11-04T12:47:54.808Z,67.27
2017-11-04T12:50:24.009Z,64.10
2017-11-04T12:52:50.924Z,59.87
2017-11-04T12:55:20.204Z,60.33
2017-11-04T12:57:46.824Z,57.17
2017-11-04T13:00:12.799Z,61.17
2017-11-04T13:02:40.687Z,65.60
2017-11-04T13:05:12.181Z,62.63
2017-11-04T13:07:41.009Z,63.20
2017-11-04T13:10:07.861Z,64.73
2017-11-04T13:12:35.434Z,58.40
2017-11-04T13:15:03.011Z,65.30
2017-11-04T13:17:29.467Z,62.77
2017-11-04T13:19:56.177Z,60.63
2017-11-04T13:22:24.259Z,64.00
2017-11-04T13:24:50.922Z,63.93
2017-11-04T13:27:17.613Z,62.80
2017-11-04T13:29:45.770Z,71.50
2017-11-04T13:32:13.386Z,57.10
2017-11-04T13:34:41.086Z,63.60
2017-11-04T13:37:07.638Z,67.97
2017-11-04T13:39:36.333Z,64.10
2017-11-04T13:42:02.345Z,61.33
2017-11-04T13:44:28.388Z,75.60
2017-11-04T13:46:55.099Z,62.83
2017-11-04T13:49:21.027Z,58.60
2017-11-04T13:51:47.048Z,66.60
2017-11-04T13:54:13.047Z,65.93
2017-11-04T13:56:40.274Z,62.33
2017-11-04T13:59:06.252Z,70.53
2017-11-04T14:01:32.258Z,65.87
2017-11-04T14:03:58.945Z,59.13
2017-11-04T14:06:24.893Z,79.10
2017-11-04T14:08:50.928Z,62.70
2017-11-04T14:11:17.005Z,71.23
2017-11-04T14:13:42.980Z,62.33
2017-11-04T14:16:09.099Z,70.43
2017-11-04T14:18:35.096Z,70.43
2017-11-04T14:21:01.107Z,68.93
2017-11-04T14:23:27.105Z,77.20
2017-11-04T14:25:53.122Z,67.33
2017-11-04T14:28:19.185Z,71.20
2017-11-04T14:30:45.918Z,69.30
2017-11-04T14:33:12.551Z,63.23
2017-11-04T14:35:38.576Z,71.97
2017-11-04T14:38:05.339Z,67.10
2017-11-04T14:40:31.301Z,65.60
2017-11-04T14:42:57.259Z,68.03
2017-11-04T14:45:23.253Z,71.17
2017-11-04T14:47:49.283Z,71.03
2017-11-04T14:50:15.311Z,79.13
2017-11-04T14:52:41.336Z,73.30
2017-11-04T14:55:07.373Z,72.93
2017-11-04T14:57:34.096Z,75.67
2017-11-04T15:00:00.076Z,78.90
2017-11-04T15:02:26.089Z,71.50
2017-11-04T15:04:52.162Z,76.80
2017-11-04T15:07:18.273Z,71.67
2017-11-04T15:09:44.355Z,64.60
2017-11-04T15:12:10.347Z,70.07
2017-11-04T15:14:40.226Z,72.33
2017-11-04T15:17:06.334Z,75.90
2017-11-04T15:19:32.352Z,71.33
2017-11-04T15:21:58.436Z,68.83
2017-11-04T15:24:26.318Z,66.60
2017-11-04T15:26:52.323Z,65.90
2017-11-04T15:29:19.215Z,70.23
2017-11-04T15:31:45.446Z,63.57
2017-11-04T15:34:11.803Z,70.97
2017-11-04T15:36:37.977Z,77.30
2017-11-04T15:39:03.971Z,76.83
2017-11-04T15:41:29.974Z,72.13
2017-11-04T15:43:56.276Z,63.27
2017-11-04T15:46:22.277Z,68.10
2017-11-04T15:48:48.327Z,64.40
2017-11-04T15:51:14.398Z,70.77
2017-11-04T15:53:41.145Z,75.80
2017-11-04T15:56:07.086Z,76.70
2017-11-04T15:58:33.041Z,70.73
2017-11-04T16:00:59.247Z,74.10
2017-11-04T16:03:25.609Z,67.37
2017-11-04T16:05:51.818Z,62.67
2017-11-04T16:08:18.243Z,69.30
2017-11-04T16:10:44.242Z,71.77
2017-11-04T16:13:10.233Z,64.43
2017-11-04T16:15:36.452Z,63.93
2017-11-04T16:18:02.412Z,58.40
2017-11-04T16:20:28.386Z,70.63
2017-11-04T16:22:54.357Z,68.87
2017-11-04T16:25:20.501Z,73.87
2017-11-04T16:27:46.497Z,66.17
2017-11-04T16:30:12.500Z,76.93
2017-11-04T16:32:38.500Z,69.07
2017-11-04T16:35:04.589Z,74.93
2017-11-04T16:37:30.656Z,77.53
2017-11-04T16:39:56.616Z,80.67
2017-11-04T16:42:22.619Z,71.73
2017-11-04T16:44:49.379Z,81.20
2017-11-04T16:47:15.403Z,63.80
2017-11-04T16:49:41.397Z,73.80
2017-11-04T16:52:07.381Z,68.10
2017-11-04T16:54:33.383Z,70.90
2017-11-04T16:56:59.315Z,64.67
2017-11-04T16:59:25.297Z,68.03
2017-11-04T17:01:52.031Z,81.77
2017-11-04T17:04:18.067Z,122.33
2017-11-04T17:06:44.096Z,142.17
2017-11-04T17:09:10.588Z,147.50
2017-11-04T17:11:36.543Z,133.20
2017-11-04T17:14:02.617Z,133.00
2017-11-04T17:16:28.816Z,137.10
2017-11-04T17:18:54.733Z,91.10
2017-11-04T17:21:21.636Z,93.60
2017-11-04T17:23:47.585Z,92.90
2017-11-04T17:26:13.650Z,92.23
2017-11-04T17:28:39.680Z,106.53
2017-11-04T17:31:05.893Z,111.33
2017-11-04T17:33:31.948Z,93.97
2017-11-04T17:35:58.055Z,91.03
2017-11-04T17:38:24.287Z,83.53
2017-11-04T17:40:50.246Z,90.07
2017-11-04T17:43:16.247Z,85.03
2017-11-04T17:45:42.427Z,82.60
2017-11-04T17:48:08.467Z,78.60
2017-11-04T17:50:43.663Z,74.03
2017-11-04T17:53:12.432Z,77.13
2017-11-04T17:55:44.772Z,79.17
2017-11-04T17:58:17.207Z,77.60
2017-11-04T18:00:43.261Z,77.77
2017-11-04T18:03:09.308Z,76.57
2017-11-04T18:05:35.279Z,74.90
2017-11-04T18:08:01.342Z,71.10
2017-11-04T18:10:27.346Z,76.37
2017-11-04T18:12:54.204Z,67.17
2017-11-04T18:15:22.887Z,80.50
2017-11-04T18:17:53.223Z,72.40
2017-11-04T18:20:19.353Z,82.10
2017-11-04T18:22:48.838Z,85.47
2017-11-04T18:25:15.504Z,68.03
2017-11-04T18:27:42.932Z,78.30
2017-11-04T18:30:10.413Z,75.47
2017-11-04T18:32:36.466Z,74.87
2017-11-04T18:35:02.426Z,82.20
2017-11-04T18:37:28.399Z,78.87
2017-11-04T18:39:54.404Z,85.20
2017-11-04T18:42:21.179Z,75.77
2017-11-04T18:44:47.298Z,78.87
2017-11-04T18:47:13.471Z,76.83
2017-11-04T18:49:39.604Z,86.53
2017-11-04T18:52:05.582Z,85.17
2017-11-04T18:54:31.612Z,84.47
2017-11-04T18:56:57.613Z,94.70
2017-11-04T18:59:23.747Z,103.63
2017-11-04T19:01:49.727Z,111.80
2017-11-04T19:04:16.431Z,95.13
2017-11-04T19:06:42.380Z,104.60
2017-11-04T19:09:08.333Z,92.13
2017-11-04T19:11:34.324Z,86.97
2017-11-04T19:14:00.357Z,95.07
2017-11-04T19:16:27.077Z,93.50
2017-11-04T19:18:53.036Z,91.90
2017-11-04T19:21:18.978Z,94.43
2017-11-04T19:23:47.517Z,92.07
2017-11-04T19:26:15.086Z,85.27
2017-11-04T19:28:42.749Z,91.97
2017-11-04T19:31:12.675Z,89.10
2017-11-04T19:33:38.952Z,91.83
2017-11-04T19:36:04.925Z,94.70
2017-11-04T19:38:30.910Z,96.93
2017-11-04T19:40:57.648Z,85.70
2017-11-04T19:43:23.693Z,96.23
2017-11-04T19:45:50.488Z,93.83
2017-11-04T19:48:16.569Z,92.07
2017-11-04T19:50:42.547Z,90.73
2017-11-04T19:53:08.533Z,101.13
2017-11-04T19:55:34.490Z,96.67
2017-11-04T19:58:00.476Z,91.47
2017-11-04T20:00:26.478Z,94.20
2017-11-04T20:02:52.446Z,99.43
2017-11-04T20:05:18.451Z,96.50
2017-11-04T20:07:44.423Z,94.30
2017-11-04T20:10:11.175Z,95.00
2017-11-04T20:12:37.491Z,93.30
2017-11-04T20:15:04.270Z,91.80
2017-11-04T20:17:30.387Z,84.20
2017-11-04T20:19:56.540Z,100.60
2017-11-04T20:22:22.512Z,92.20
2017-11-04T20:24:48.431Z,93.13
2017-11-04T20:27:14.355Z,90.93
2017-11-04T20:29:40.455Z,95.43
2017-11-04T20:32:06.444Z,86.60
2017-11-04T20:34:32.449Z,89.93
2017-11-04T20:36:58.412Z,78.30
2017-11-04T20:39:24.368Z,86.60
2017-11-04T20:41:50.367Z,85.83
2017-11-04T20:44:16.395Z,85.17
2017-11-04T20:46:42.427Z,80.87
2017-11-04T20:49:08.358Z,77.07
2017-11-04T20:51:34.313Z,77.70
2017-11-04T20:54:00.288Z,84.20
2017-11-04T20:56:26.961Z,83.80
2017-11-04T20:58:52.898Z,88.37
2017-11-04T21:01:18.957Z,92.63
2017-11-04T21:03:44.927Z,85.70
2017-11-04T21:06:10.932Z,75.23
2017-11-04T21:08:36.885Z,82.13
2017-11-04T21:11:02.868Z,84.80
2017-11-04T21:13:29.539Z,83.90
2017-11-04T21:15:55.521Z,75.90
2017-11-04T21:18:22.328Z,74.47
2017-11-04T21:20:48.284Z,80.33
2017-11-04T21:23:14.315Z,86.40
2017-11-04T21:25:40.248Z,84.57
2017-11-04T21:28:06.294Z,83.07
2017-11-04T21:30:32.224Z,83.07
2017-11-04T21:32:58.188Z,81.83
2017-11-04T21:35:24.249Z,84.13
2017-11-04T21:37:51.231Z,91.00
2017-11-04T21:40:18.336Z,89.00
2017-11-04T21:42:44.379Z,87.73
2017-11-04T21:45:10.420Z,95.03
2017-11-04T21:47:36.381Z,87.40
2017-11-04T21:50:03.240Z,81.63
2017-11-04T21:52:29.187Z,94.80
2017-11-04T21:54:55.311Z,86.03
2017-11-04T21:57:21.484Z,83.23
2017-11-04T21:59:47.496Z,236.73
2017-11-04T22:02:13.581Z,79.00
2017-11-04T22:04:39.650Z,114.17
2017-11-04T22:07:05.604Z,76.97
2017-11-04T22:09:31.806Z,75.30
2017-11-04T22:11:57.826Z,98.50
2017-11-04T22:14:23.797Z,69.27
2017-11-04T22:16:49.936Z,74.80
2017-11-04T22:19:16.220Z,70.63
2017-11-04T22:21:42.566Z,69.00
2017-11-04T22:24:09.332Z,65.00
2017-11-04T22:26:35.571Z,69.03
2017-11-04T22:29:02.631Z,69.67
2017-11-04T22:31:28.583Z,66.00
2017-11-04T22:33:54.545Z,72.03
2017-11-04T22:36:20.513Z,70.67
2017-11-04T22:38:47.197Z,72.83
2017-11-04T22:41:13.189Z,81.10
2017-11-04T22:43:39.216Z,89.77
2017-11-04T22:46:05.741Z,78.77
2017-11-04T22:48:31.696Z,74.43
2017-11-04T22:50:57.707Z,70.00
2017-11-04T22:53:26.634Z,67.43
2017-11-04T22:55:52.903Z,65.07
2017-11-04T22:58:18.921Z,65.73
2017-11-04T23:00:44.945Z,73.33
2017-11-04T23:03:11.144Z,61.57
2017-11-04T23:05:37.081Z,65.03
2017-11-04T23:08:03.287Z,70.57
2017-11-04T23:10:29.242Z,83.77
2017-11-04T23:12:55.280Z,67.57
2017-11-04T23:15:22.206Z,70.63
2017-11-04T23:17:48.235Z,78.60
2017-11-04T23:20:14.195Z,69.53
2017-11-04T23:22:40.196Z,70.53
2017-11-04T23:25:06.151Z,64.67
2017-11-04T23:27:32.140Z,66.90
2017-11-04T23:29:58.092Z,66.60
2017-11-04T23:32:24.120Z,66.33
2017-11-04T23:34:50.103Z,72.03
2017-11-04T23:37:16.314Z,68.13
2017-11-04T23:39:42.242Z,70.67
2017-11-04T23:42:08.214Z,73.53
2017-11-04T23:44:34.187Z,66.40
2017-11-04T23:47:00.153Z,67.53
2017-11-04T23:49:26.071Z,68.33
2017-11-04T23:51:52.029Z,62.77
2017-11-04T23:54:17.967Z,60.90
2017-11-04T23:56:43.905Z,70.80
2017-11-04T23:59:09.864Z,62.27
